Pagina principale
METAR-TAF:

METAR-TAF

Aeroporti :

Keetmanshoop, Namibia

latitudine: 26-32S, longitudine: 018-07E, altezza: 1067 m

Osservazione

Il bollettino è stato emesso 1 ora e 19 minuti fa, alle 00:00 UTC
Vento 9 kt da nord-est
Temperature 19°C
Umidità 15%
Pressione 1020 hPa

METAR: FYKT 310000Z AUTO 05009KT //// // ////// 19/M08 Q1020

Ora: 03:19 (01:19 UTC)

Previsione

Il bollettino è stato emesso 3 ore e 19 minuti fa, alle 22:00 UTC
Previsione valida dal 31 alle 00 UTC al 01 alle 00 UTC
Vento 8 kt da nord/nord-est
Visibilità 10 km o più
nessuna nube inferiore a 1500 m e nessun cumulonembo

TAF: FYKT 302200Z 3100/0100 02008KT CAVOK

Osservazioni e previsioni meteorologiche di più di 4000 aeroporti (messaggi METAR e TAF).

Le stazioni disponibili sono rappresentate dai dischi gialli e rossi sulla carta.

Puntare il mouse per vedere il nome della stazione.

Clicca sopra per visualizzare le osservazioni e previsioni meteorologiche.

Per cambiare la mappa : fare clic sui pulsanti verdi con una croce nera per ingrandire, il pulsante verde con un trattino per diminuire, o sulla freccia verde per le mappe adiacenti.


METAR-TAF: